Time;durP1;ratioP1;P1;durP2;ratioP2;P2;SDS_P1;SDS_P2;PMS_P1;PMS_P2;Temp;Humidity;BMP_temperature;BMP_pressure;BME280_temperature;BME280_humidity;BME280_pressure;Samples;Min_cycle;Max_cycle;Signal;HPM_P1;HPM_P2
2023/11/11 00:02:14;;;;;;;11.40;5.97;;;;;;;;;;5116906;28;20254;-27
2023/11/11 00:04:39;;;;;;;10.93;5.72;;;;;;;;;;5116430;28;20348;-27
2023/11/11 00:07:05;;;;;;;10.00;5.05;;;;;;;;;;5116754;28;20020;-27
2023/11/11 00:09:30;;;;;;;10.95;5.10;;;;;;;;;;5116465;28;20022;-27
2023/11/11 00:11:58;;;;;;;9.75;4.78;;;;;;;;;;5116065;28;20431;-27
2023/11/11 00:14:23;;;;;;;10.75;4.63;;;;;;;;;;5116652;28;20024;-27
2023/11/11 00:16:49;;;;;;;10.82;4.63;;;;;;;;;;5116074;28;20020;-27
2023/11/11 00:19:14;;;;;;;10.05;4.50;;;;;;;;;;5116006;28;20030;-27
2023/11/11 00:21:42;;;;;;;12.80;5.00;;;;;;;;;;5116477;28;20051;-27
2023/11/11 00:24:11;;;;;;;8.20;4.50;;;;;;;;;;5115744;28;20019;-27
2023/11/11 00:26:37;;;;;;;11.18;4.60;;;;;;;;;;5115749;28;20016;-27
2023/11/11 00:29:05;;;;;;;9.57;4.82;;;;;;;;;;5115807;28;20020;-27
2023/11/11 00:31:31;;;;;;;10.30;4.70;;;;;;;;;;5116270;28;20019;-27
2023/11/11 00:33:58;;;;;;;6.35;4.03;;;;;;;;;;5115933;28;20034;-27
2023/11/11 00:36:24;;;;;;;8.70;4.10;;;;;;;;;;5115870;28;20024;-27
2023/11/11 00:38:49;;;;;;;8.68;3.90;;;;;;;;;;5115844;28;20016;-27
2023/11/11 00:41:14;;;;;;;8.57;3.93;;;;;;;;;;5116091;28;20023;-27
2023/11/11 00:43:39;;;;;;;12.17;3.90;;;;;;;;;;5115356;28;20802;-27
2023/11/11 00:46:04;;;;;;;10.18;3.50;;;;;;;;;;5115684;28;20348;-27
2023/11/11 00:48:31;;;;;;;8.07;3.23;;;;;;;;;;5115990;28;20024;-27
2023/11/11 00:50:58;;;;;;;10.13;3.10;;;;;;;;;;5115614;28;20761;-27
2023/11/11 00:53:23;;;;;;;7.43;3.22;;;;;;;;;;5115243;28;20051;-27
2023/11/11 00:55:48;;;;;;;8.60;3.10;;;;;;;;;;5115274;28;20369;-27
2023/11/11 00:58:13;;;;;;;5.57;2.90;;;;;;;;;;5115783;28;20257;-27
2023/11/11 01:00:39;;;;;;;6.47;2.90;;;;;;;;;;5115144;28;20285;-27
2023/11/11 01:03:05;;;;;;;11.20;2.90;;;;;;;;;;5115027;28;20095;-27
2023/11/11 01:05:30;;;;;;;7.97;2.83;;;;;;;;;;5115044;28;20011;-28
2023/11/11 01:07:55;;;;;;;9.82;2.85;;;;;;;;;;5115070;28;20023;-27
2023/11/11 01:10:24;;;;;;;7.95;2.95;;;;;;;;;;5114955;28;20522;-27
2023/11/11 01:12:51;;;;;;;7.75;2.45;;;;;;;;;;5115148;28;20107;-27
2023/11/11 01:15:16;;;;;;;9.68;2.40;;;;;;;;;;5114835;28;20102;-27
2023/11/11 01:17:41;;;;;;;6.40;2.22;;;;;;;;;;5114829;28;20039;-28
2023/11/11 01:20:07;;;;;;;7.15;2.40;;;;;;;;;;5114987;28;20066;-27
2023/11/11 01:22:32;;;;;;;7.47;2.60;;;;;;;;;;5113867;28;20003;-27
2023/11/11 01:24:58;;;;;;;8.48;2.30;;;;;;;;;;5115210;28;20343;-27
2023/11/11 01:27:23;;;;;;;6.40;2.03;;;;;;;;;;5114526;28;20477;-27
2023/11/11 01:29:48;;;;;;;7.88;2.38;;;;;;;;;;5096391;28;20104;-27
2023/11/11 01:32:14;;;;;;;8.38;2.20;;;;;;;;;;5114817;28;20019;-27
2023/11/11 01:34:39;;;;;;;3.72;1.88;;;;;;;;;;5114726;28;20028;-27
2023/11/11 01:37:07;;;;;;;6.45;1.90;;;;;;;;;;5114698;28;20454;-27
2023/11/11 01:39:32;;;;;;;6.55;2.00;;;;;;;;;;5114667;28;20521;-27
2023/11/11 01:41:58;;;;;;;5.27;1.80;;;;;;;;;;5115010;28;20050;-27
2023/11/11 01:44:23;;;;;;;3.00;1.70;;;;;;;;;;5114599;28;20670;-27
2023/11/11 01:46:48;;;;;;;5.60;1.85;;;;;;;;;;5114634;28;20027;-27
2023/11/11 01:49:15;;;;;;;8.38;2.03;;;;;;;;;;5114891;28;20016;-27
2023/11/11 01:51:41;;;;;;;5.43;1.65;;;;;;;;;;5114036;28;20046;-28
2023/11/11 01:54:06;;;;;;;3.90;1.85;;;;;;;;;;5114239;28;20023;-27
2023/11/11 01:56:31;;;;;;;6.05;1.73;;;;;;;;;;5114512;28;20027;-27
2023/11/11 01:58:57;;;;;;;6.27;1.93;;;;;;;;;;5113505;28;20020;-27
2023/11/11 02:01:23;;;;;;;6.22;2.10;;;;;;;;;;5114052;28;20253;-28
2023/11/11 02:03:48;;;;;;;8.50;2.53;;;;;;;;;;5114585;28;20367;-27
2023/11/11 02:06:14;;;;;;;6.82;2.20;;;;;;;;;;5113972;28;20016;-26
2023/11/11 02:08:39;;;;;;;6.15;1.80;;;;;;;;;;5114268;28;20020;-27
2023/11/11 02:11:06;;;;;;;3.70;1.30;;;;;;;;;;5113923;28;20458;-27
2023/11/11 02:13:35;;;;;;;4.60;1.00;;;;;;;;;;5114500;28;20068;-27
2023/11/11 02:16:04;;;;;;;6.00;1.27;;;;;;;;;;5113437;28;20463;-27
2023/11/11 02:18:29;;;;;;;1.67;0.85;;;;;;;;;;5114131;28;20385;-27
2023/11/11 02:20:54;;;;;;;2.88;0.93;;;;;;;;;;5114443;28;20051;-27
2023/11/11 02:23:20;;;;;;;2.30;0.73;;;;;;;;;;5114058;28;20072;-27
2023/11/11 02:25:45;;;;;;;2.92;1.10;;;;;;;;;;5114409;28;20023;-27
2023/11/11 02:28:10;;;;;;;5.22;1.10;;;;;;;;;;5113788;28;20094;-26
2023/11/11 02:30:35;;;;;;;3.92;1.10;;;;;;;;;;5113958;28;20012;-27
2023/11/11 02:33:01;;;;;;;2.53;1.20;;;;;;;;;;5113816;28;20088;-27
2023/11/11 02:35:26;;;;;;;4.43;1.30;;;;;;;;;;5113803;28;20250;-27
2023/11/11 02:37:51;;;;;;;2.47;1.20;;;;;;;;;;5114353;28;20245;-27
2023/11/11 02:40:16;;;;;;;8.90;1.70;;;;;;;;;;5113912;28;20627;-27
2023/11/11 02:42:42;;;;;;;2.25;1.25;;;;;;;;;;5114277;28;20498;-27
2023/11/11 02:45:07;;;;;;;6.20;1.20;;;;;;;;;;5114198;28;20020;-27
2023/11/11 02:47:33;;;;;;;4.82;1.38;;;;;;;;;;5095388;28;20095;-27
2023/11/11 02:49:58;;;;;;;10.20;1.47;;;;;;;;;;5114228;28;20020;-27
2023/11/11 02:52:23;;;;;;;6.60;1.40;;;;;;;;;;5113527;28;20706;-27
2023/11/11 02:54:48;;;;;;;5.17;0.90;;;;;;;;;;5113599;28;20016;-27
2023/11/11 02:57:13;;;;;;;3.60;1.17;;;;;;;;;;5113551;28;20277;-27
2023/11/11 02:59:42;;;;;;;4.20;1.20;;;;;;;;;;5113570;28;20285;-27
2023/11/11 03:02:08;;;;;;;2.55;1.05;;;;;;;;;;5113770;28;20296;-27
2023/11/11 03:04:36;;;;;;;2.72;0.98;;;;;;;;;;5113773;28;20371;-26
2023/11/11 03:07:01;;;;;;;4.25;1.00;;;;;;;;;;5113487;28;20020;-27
2023/11/11 03:09:26;;;;;;;1.97;1.00;;;;;;;;;;5114108;28;20145;-27
2023/11/11 03:11:52;;;;;;;5.93;1.10;;;;;;;;;;5113635;28;20270;-27
2023/11/11 03:14:19;;;;;;;2.08;0.93;;;;;;;;;;5113954;28;20016;-27
2023/11/11 03:16:44;;;;;;;3.60;1.38;;;;;;;;;;5113422;28;20059;-27
2023/11/11 03:19:09;;;;;;;5.67;1.83;;;;;;;;;;5113669;28;20065;-27
2023/11/11 03:21:34;;;;;;;7.30;1.40;;;;;;;;;;5113360;28;20334;-27
2023/11/11 03:23:59;;;;;;;5.05;1.75;;;;;;;;;;5113287;28;20285;-27
2023/11/11 03:26:25;;;;;;;2.97;1.33;;;;;;;;;;5115110;28;20401;-27
2023/11/11 03:28:50;;;;;;;5.00;1.25;;;;;;;;;;5117315;28;20253;-27
2023/11/11 03:31:19;;;;;;;5.53;1.63;;;;;;;;;;5117039;28;20403;-27
2023/11/11 03:33:45;;;;;;;6.40;1.60;;;;;;;;;;5117244;28;20080;-27
2023/11/11 03:36:11;;;;;;;7.47;1.70;;;;;;;;;;5116951;28;20419;-27
2023/11/11 03:38:36;;;;;;;6.63;1.63;;;;;;;;;;5117459;28;20072;-27
2023/11/11 03:41:01;;;;;;;4.03;1.85;;;;;;;;;;5116819;28;20288;-27
2023/11/11 03:43:26;;;;;;;5.50;1.83;;;;;;;;;;5116688;28;20026;-27
2023/11/11 03:45:51;;;;;;;7.13;1.83;;;;;;;;;;5117186;28;20288;-27
2023/11/11 03:48:16;;;;;;;4.53;1.40;;;;;;;;;;5117189;28;20246;-27
2023/11/11 03:50:42;;;;;;;8.60;1.50;;;;;;;;;;5116510;28;20262;-27
2023/11/11 03:53:07;;;;;;;6.50;1.52;;;;;;;;;;5116699;28;20278;-27
2023/11/11 03:55:32;;;;;;;4.83;1.17;;;;;;;;;;5116997;28;20102;-27
2023/11/11 03:57:57;;;;;;;4.38;0.93;;;;;;;;;;5116727;28;20751;-27
2023/11/11 04:00:23;;;;;;;6.45;1.10;;;;;;;;;;5116618;28;20019;-27
2023/11/11 04:02:48;;;;;;;5.65;1.05;;;;;;;;;;5116660;28;20023;-27
2023/11/11 04:05:14;;;;;;;5.93;1.38;;;;;;;;;;5116263;28;20020;-27
2023/11/11 04:07:39;;;;;;;7.68;1.08;;;;;;;;;;5116326;28;20026;-27
2023/11/11 04:10:04;;;;;;;4.32;1.27;;;;;;;;;;5116536;28;20039;-27
2023/11/11 04:12:30;;;;;;;4.15;1.08;;;;;;;;;;5116331;28;20098;-27
2023/11/11 04:14:55;;;;;;;7.60;1.17;;;;;;;;;;5116737;28;20034;-27
2023/11/11 04:17:20;;;;;;;9.15;1.30;;;;;;;;;;5116385;28;20328;-27
2023/11/11 04:19:46;;;;;;;12.32;1.33;;;;;;;;;;5116322;28;20729;-27
2023/11/11 04:22:11;;;;;;;5.43;1.25;;;;;;;;;;5116287;28;20023;-27
2023/11/11 04:24:36;;;;;;;8.95;1.25;;;;;;;;;;5116435;28;20019;-27
2023/11/11 04:27:02;;;;;;;4.90;1.17;;;;;;;;;;5116198;28;20019;-27
2023/11/11 04:29:27;;;;;;;8.68;1.38;;;;;;;;;;5116105;28;20279;-27
2023/11/11 04:31:52;;;;;;;5.07;1.20;;;;;;;;;;5116407;28;20020;-27
2023/11/11 04:34:19;;;;;;;2.40;0.90;;;;;;;;;;5116122;28;20281;-27
2023/11/11 04:36:44;;;;;;;7.85;1.00;;;;;;;;;;5115777;28;20020;-27
2023/11/11 04:39:10;;;;;;;3.97;1.17;;;;;;;;;;5115018;28;20466;-27
2023/11/11 04:41:35;;;;;;;11.48;1.00;;;;;;;;;;5116657;28;20738;-27
2023/11/11 04:44:00;;;;;;;3.97;1.03;;;;;;;;;;5115534;28;20024;-27
2023/11/11 04:46:26;;;;;;;2.73;1.30;;;;;;;;;;5115863;28;20318;-27
2023/11/11 04:48:51;;;;;;;7.95;0.82;;;;;;;;;;5115791;28;20277;-27
2023/11/11 04:51:16;;;;;;;5.10;1.13;;;;;;;;;;5116000;28;20396;-27
2023/11/11 04:53:41;;;;;;;5.53;1.10;;;;;;;;;;5115252;28;20048;-27
2023/11/11 04:56:07;;;;;;;3.63;1.00;;;;;;;;;;5115612;28;20246;-27
2023/11/11 04:58:32;;;;;;;5.77;1.10;;;;;;;;;;5097082;28;20381;-27
2023/11/11 05:00:57;;;;;;;6.17;1.10;;;;;;;;;;5115781;28;20387;-27
2023/11/11 05:03:23;;;;;;;1.90;0.90;;;;;;;;;;5115104;28;20640;-27
2023/11/11 05:05:48;;;;;;;4.78;1.23;;;;;;;;;;5115677;28;20028;-27
2023/11/11 05:08:13;;;;;;;6.82;1.02;;;;;;;;;;5115708;28;20016;-27
2023/11/11 05:10:39;;;;;;;3.30;0.98;;;;;;;;;;5115031;28;20091;-27
2023/11/11 05:13:08;;;;;;;2.92;0.90;;;;;;;;;;5115244;28;20016;-27
2023/11/11 05:15:42;;;;;;;2.65;0.88;;;;;;;;;;5115232;28;20096;-27
2023/11/11 05:18:08;;;;;;;5.05;1.17;;;;;;;;;;5115183;28;20020;-28
2023/11/11 05:20:33;;;;;;;5.72;1.27;;;;;;;;;;5115126;28;20099;-27
2023/11/11 05:22:58;;;;;;;5.27;1.10;;;;;;;;;;5114803;28;20015;-27
2023/11/11 05:25:24;;;;;;;6.90;1.30;;;;;;;;;;5114780;28;20258;-27
2023/11/11 05:27:49;;;;;;;3.47;1.00;;;;;;;;;;5114713;28;20248;-27
2023/11/11 05:30:15;;;;;;;7.93;1.52;;;;;;;;;;5115013;28;20262;-27
2023/11/11 05:32:40;;;;;;;4.93;1.25;;;;;;;;;;5114958;28;20008;-27
2023/11/11 05:35:06;;;;;;;5.00;1.35;;;;;;;;;;5114645;28;20024;-27
2023/11/11 05:37:31;;;;;;;7.88;1.27;;;;;;;;;;5114739;28;20366;-27
2023/11/11 05:39:56;;;;;;;6.30;1.75;;;;;;;;;;5114475;28;20034;-27
2023/11/11 05:42:21;;;;;;;8.07;1.55;;;;;;;;;;5114772;28;20019;-27
2023/11/11 05:44:46;;;;;;;4.18;1.20;;;;;;;;;;5114648;28;20023;-27
2023/11/11 05:47:12;;;;;;;3.77;1.33;;;;;;;;;;5114378;28;20015;-27
2023/11/11 05:49:40;;;;;;;6.53;1.33;;;;;;;;;;5113992;28;20233;-28
2023/11/11 05:52:06;;;;;;;10.05;1.45;;;;;;;;;;5114378;28;20061;-28
2023/11/11 05:54:31;;;;;;;6.00;1.50;;;;;;;;;;5114543;28;20026;-27
2023/11/11 05:56:57;;;;;;;6.75;1.42;;;;;;;;;;5114454;28;20047;-28
2023/11/11 05:59:22;;;;;;;6.88;1.40;;;;;;;;;;5114232;28;20020;-28
2023/11/11 06:01:47;;;;;;;2.95;1.20;;;;;;;;;;5114717;28;20023;-28
2023/11/11 06:04:14;;;;;;;8.27;2.70;;;;;;;;;;5114281;28;20094;-33
2023/11/11 06:06:42;;;;;;;5.20;1.30;;;;;;;;;;5114379;28;20020;-28
2023/11/11 06:09:14;;;;;;;5.05;1.50;;;;;;;;;;5114344;28;20019;-27
2023/11/11 06:11:43;;;;;;;6.10;1.48;;;;;;;;;;5114162;28;20024;-27
2023/11/11 06:14:08;;;;;;;6.78;1.17;;;;;;;;;;5114245;28;20032;-28
2023/11/11 06:16:33;;;;;;;6.95;1.70;;;;;;;;;;5095750;28;20483;-28
2023/11/11 06:18:58;;;;;;;3.57;1.20;;;;;;;;;;5114260;28;20016;-28
2023/11/11 06:21:23;;;;;;;9.98;1.35;;;;;;;;;;5113950;28;20257;-27
2023/11/11 06:23:48;;;;;;;4.37;1.07;;;;;;;;;;5114334;28;20031;-28
2023/11/11 06:26:14;;;;;;;10.20;1.77;;;;;;;;;;5113836;28;20344;-28
2023/11/11 06:28:39;;;;;;;4.20;1.20;;;;;;;;;;5114465;28;20244;-28
2023/11/11 06:31:04;;;;;;;7.03;1.40;;;;;;;;;;5113853;28;20743;-28
2023/11/11 06:33:29;;;;;;;2.30;0.77;;;;;;;;;;5114416;28;20336;-28
2023/11/11 06:35:58;;;;;;;5.03;1.33;;;;;;;;;;5113830;28;20250;-27
2023/11/11 06:38:23;;;;;;;3.58;1.33;;;;;;;;;;5113744;28;20028;-28
2023/11/11 06:40:49;;;;;;;3.23;1.43;;;;;;;;;;5114239;28;20027;-27
2023/11/11 06:43:14;;;;;;;2.97;1.10;;;;;;;;;;5113943;28;20658;-27
2023/11/11 06:45:41;;;;;;;4.45;1.25;;;;;;;;;;5113749;28;20440;-28
2023/11/11 06:48:06;;;;;;;3.05;1.13;;;;;;;;;;5114265;28;20015;-27
2023/11/11 06:50:32;;;;;;;3.37;0.93;;;;;;;;;;5114214;28;20023;-28
2023/11/11 06:52:57;;;;;;;4.45;1.00;;;;;;;;;;5113438;28;20300;-28
2023/11/11 06:55:22;;;;;;;3.92;1.13;;;;;;;;;;5114083;28;20055;-28
2023/11/11 06:57:47;;;;;;;3.58;1.10;;;;;;;;;;5113881;28;20023;-27
2023/11/11 07:00:18;;;;;;;3.30;1.03;;;;;;;;;;5113626;28;20087;-27
2023/11/11 07:02:44;;;;;;;4.32;1.15;;;;;;;;;;5117572;28;20740;-27
2023/11/11 07:05:10;;;;;;;3.92;1.27;;;;;;;;;;5117368;28;20062;-28
2023/11/11 07:07:35;;;;;;;2.72;1.02;;;;;;;;;;5117488;28;20016;-28
2023/11/11 07:10:00;;;;;;;6.50;1.48;;;;;;;;;;5117472;28;20018;-28
2023/11/11 07:12:26;;;;;;;2.58;1.23;;;;;;;;;;5117237;28;20016;-27
2023/11/11 07:14:51;;;;;;;3.65;0.93;;;;;;;;;;5117362;28;20051;-28
2023/11/11 07:17:16;;;;;;;4.53;1.10;;;;;;;;;;5117856;28;20049;-27
2023/11/11 07:19:41;;;;;;;4.60;1.25;;;;;;;;;;5117512;28;20723;-27
2023/11/11 07:22:07;;;;;;;7.17;1.40;;;;;;;;;;5117519;28;20024;-27
2023/11/11 07:24:32;;;;;;;3.60;1.58;;;;;;;;;;5117876;28;20342;-27
2023/11/11 07:26:57;;;;;;;4.78;1.27;;;;;;;;;;5117607;28;20016;-27
2023/11/11 07:29:25;;;;;;;2.33;1.30;;;;;;;;;;5117487;28;20023;-27
2023/11/11 07:31:51;;;;;;;5.70;1.52;;;;;;;;;;5117718;28;20352;-27
2023/11/11 07:34:16;;;;;;;3.97;1.33;;;;;;;;;;5117512;28;20057;-28
2023/11/11 07:36:41;;;;;;;3.63;1.90;;;;;;;;;;5117445;28;20474;-28
2023/11/11 07:39:07;;;;;;;5.35;1.27;;;;;;;;;;5117510;28;20458;-27
2023/11/11 07:41:32;;;;;;;3.35;1.67;;;;;;;;;;5117162;28;20019;-27
2023/11/11 07:44:04;;;;;;;4.43;1.23;;;;;;;;;;5116737;28;20066;-28
2023/11/11 07:46:29;;;;;;;8.57;1.20;;;;;;;;;;5098420;28;20070;-27
2023/11/11 07:48:55;;;;;;;6.73;1.30;;;;;;;;;;5116739;28;20016;-28
2023/11/11 07:51:21;;;;;;;4.57;1.45;;;;;;;;;;5117372;28;20266;-27
2023/11/11 07:53:48;;;;;;;4.22;1.30;;;;;;;;;;5117214;28;20043;-28
2023/11/11 07:56:13;;;;;;;3.47;1.25;;;;;;;;;;5098286;28;20489;-28
2023/11/11 07:58:38;;;;;;;6.38;1.20;;;;;;;;;;5116797;28;20019;-27
2023/11/11 08:01:05;;;;;;;5.43;1.30;;;;;;;;;;5116421;28;20103;-28
2023/11/11 08:03:32;;;;;;;5.75;1.80;;;;;;;;;;5116297;28;20284;-28
2023/11/11 08:05:57;;;;;;;5.25;1.50;;;;;;;;;;5116323;28;20024;-27
2023/11/11 08:08:24;;;;;;;7.07;1.88;;;;;;;;;;5116363;28;20076;-28
2023/11/11 08:10:50;;;;;;;7.38;1.77;;;;;;;;;;5116545;28;20022;-28
2023/11/11 08:13:15;;;;;;;4.20;1.30;;;;;;;;;;5115067;28;20076;-28
2023/11/11 08:15:40;;;;;;;4.00;1.20;;;;;;;;;;5116104;28;20015;-28
2023/11/11 08:18:06;;;;;;;6.22;2.05;;;;;;;;;;5116224;28;20107;-27
2023/11/11 08:20:31;;;;;;;4.27;1.47;;;;;;;;;;5116108;28;20429;-27
2023/11/11 08:22:56;;;;;;;4.57;1.53;;;;;;;;;;5116623;28;20249;-27
2023/11/11 08:25:22;;;;;;;6.78;1.30;;;;;;;;;;5115859;28;20281;-28
2023/11/11 08:27:50;;;;;;;6.82;1.50;;;;;;;;;;5116164;28;20011;-27
2023/11/11 08:30:16;;;;;;;8.38;1.80;;;;;;;;;;5116136;28;20027;-28
2023/11/11 08:32:42;;;;;;;4.63;1.60;;;;;;;;;;5115722;28;20396;-28
2023/11/11 08:35:08;;;;;;;2.78;1.20;;;;;;;;;;5097551;28;20034;-27
2023/11/11 08:37:34;;;;;;;8.68;1.58;;;;;;;;;;5115677;28;20019;-27
2023/11/11 08:40:05;;;;;;;4.30;1.45;;;;;;;;;;5115565;28;20034;-28
2023/11/11 08:42:31;;;;;;;3.78;1.40;;;;;;;;;;5115890;28;20047;-28
2023/11/11 08:44:58;;;;;;;5.30;1.20;;;;;;;;;;5115550;28;20016;-28
2023/11/11 08:47:24;;;;;;;3.78;1.10;;;;;;;;;;5115701;28;20289;-28
2023/11/11 08:49:49;;;;;;;5.38;1.65;;;;;;;;;;5115623;28;20050;-28
2023/11/11 08:52:14;;;;;;;3.88;1.50;;;;;;;;;;5115487;28;20039;-27
2023/11/11 08:54:39;;;;;;;5.53;1.70;;;;;;;;;;5115160;28;20403;-27
2023/11/11 08:57:04;;;;;;;6.83;1.70;;;;;;;;;;5115214;28;20268;-27
2023/11/11 08:59:29;;;;;;;4.17;1.33;;;;;;;;;;5115121;28;20784;-27
2023/11/11 09:01:55;;;;;;;2.47;1.50;;;;;;;;;;5114907;28;20257;-27
2023/11/11 09:04:20;;;;;;;5.80;1.40;;;;;;;;;;5114953;28;20277;-27
2023/11/11 09:06:45;;;;;;;3.47;1.30;;;;;;;;;;5115277;28;20602;-27
2023/11/11 09:09:14;;;;;;;5.55;1.33;;;;;;;;;;5114921;28;20038;-29
2023/11/11 09:11:39;;;;;;;2.38;1.20;;;;;;;;;;5115094;28;20019;-27
2023/11/11 09:14:05;;;;;;;3.50;1.27;;;;;;;;;;5114967;28;20081;-27
2023/11/11 09:16:30;;;;;;;6.13;1.30;;;;;;;;;;5114794;28;20351;-27
2023/11/11 09:18:56;;;;;;;3.38;1.55;;;;;;;;;;5114928;28;20019;-28
2023/11/11 09:21:21;;;;;;;5.47;1.43;;;;;;;;;;5115449;28;20020;-28
2023/11/11 09:23:46;;;;;;;3.33;1.13;;;;;;;;;;5114970;28;20278;-28
2023/11/11 09:26:13;;;;;;;4.63;1.47;;;;;;;;;;5114989;28;20020;-28
2023/11/11 09:28:38;;;;;;;4.13;1.25;;;;;;;;;;5114941;28;20121;-28
2023/11/11 09:31:04;;;;;;;7.03;1.48;;;;;;;;;;5114641;28;20061;-28
2023/11/11 09:33:30;;;;;;;4.50;1.50;;;;;;;;;;5114871;28;20023;-28
2023/11/11 09:35:55;;;;;;;3.10;1.42;;;;;;;;;;5114755;28;20043;-28
2023/11/11 09:38:20;;;;;;;4.32;1.55;;;;;;;;;;5114570;28;20069;-28
2023/11/11 09:40:46;;;;;;;6.27;1.80;;;;;;;;;;5115028;28;20029;-27
2023/11/11 09:43:11;;;;;;;4.50;1.83;;;;;;;;;;5114678;28;20264;-27
2023/11/11 09:45:37;;;;;;;6.32;1.70;;;;;;;;;;5114650;28;20597;-28
2023/11/11 09:48:03;;;;;;;7.07;2.00;;;;;;;;;;5114594;28;20019;-27
2023/11/11 09:50:29;;;;;;;6.18;1.70;;;;;;;;;;5115020;28;20016;-28
2023/11/11 09:52:54;;;;;;;6.50;1.50;;;;;;;;;;5114335;28;20051;-27
2023/11/11 09:55:20;;;;;;;5.15;1.50;;;;;;;;;;5114513;28;20264;-27
2023/11/11 09:57:46;;;;;;;5.72;1.65;;;;;;;;;;5114472;28;20034;-27
2023/11/11 10:00:12;;;;;;;7.18;1.65;;;;;;;;;;5114217;28;20030;-28
2023/11/11 10:02:37;;;;;;;8.45;1.75;;;;;;;;;;5114874;28;20471;-27
2023/11/11 10:05:04;;;;;;;6.78;1.67;;;;;;;;;;5114269;28;20022;-27
2023/11/11 10:07:29;;;;;;;4.45;1.77;;;;;;;;;;5113998;28;20012;-28
2023/11/11 10:09:55;;;;;;;5.97;1.52;;;;;;;;;;5095754;28;20464;-28
2023/11/11 10:12:21;;;;;;;6.55;1.77;;;;;;;;;;5114136;28;20012;-27
2023/11/11 10:14:47;;;;;;;7.63;1.50;;;;;;;;;;5114509;28;20527;-27
2023/11/11 10:17:13;;;;;;;5.85;1.40;;;;;;;;;;5113977;28;20020;-27
2023/11/11 10:19:42;;;;;;;4.85;1.48;;;;;;;;;;5113924;28;20023;-28
2023/11/11 10:22:11;;;;;;;6.32;1.60;;;;;;;;;;5114361;28;20020;-28
2023/11/11 10:24:36;;;;;;;4.70;1.73;;;;;;;;;;5113954;28;20113;-28
2023/11/11 10:27:03;;;;;;;6.57;1.90;;;;;;;;;;5114163;28;20367;-29
2023/11/11 10:29:32;;;;;;;4.85;1.80;;;;;;;;;;5114144;28;20369;-28
2023/11/11 10:31:58;;;;;;;4.05;1.80;;;;;;;;;;5114080;28;20465;-29
2023/11/11 10:34:23;;;;;;;5.13;1.80;;;;;;;;;;5113756;28;20051;-28
2023/11/11 10:36:48;;;;;;;8.90;1.93;;;;;;;;;;5115939;28;20027;-28
2023/11/11 10:39:14;;;;;;;4.75;1.48;;;;;;;;;;5117791;28;20024;-28
2023/11/11 10:41:40;;;;;;;7.75;2.00;;;;;;;;;;5118237;28;20023;-28
2023/11/11 10:44:07;;;;;;;6.13;2.10;;;;;;;;;;5117927;28;20093;-29
2023/11/11 10:46:32;;;;;;;6.18;1.80;;;;;;;;;;5118177;28;20133;-28
2023/11/11 10:48:58;;;;;;;6.53;1.83;;;;;;;;;;5118121;28;20030;-29
2023/11/11 10:51:23;;;;;;;4.45;1.80;;;;;;;;;;5118055;28;20483;-28
2023/11/11 10:53:49;;;;;;;6.13;1.65;;;;;;;;;;5117571;28;20478;-28
2023/11/11 10:56:15;;;;;;;4.18;1.60;;;;;;;;;;5117406;28;20033;-28
2023/11/11 10:58:40;;;;;;;6.88;1.63;;;;;;;;;;5099056;28;20012;-28
2023/11/11 11:01:08;;;;;;;7.10;1.50;;;;;;;;;;5118050;28;20024;-28
2023/11/11 11:03:34;;;;;;;4.50;1.52;;;;;;;;;;5117321;28;20297;-28
2023/11/11 11:06:06;;;;;;;4.28;1.50;;;;;;;;;;5117568;28;20015;-28
2023/11/11 11:08:44;;;;;;;9.40;1.50;;;;;;;;;;5117304;28;20012;-28
2023/11/11 11:11:27;;;;;;;3.00;1.40;;;;;;;;;;5117031;28;20024;-28
2023/11/11 11:13:55;;;;;;;3.40;1.30;;;;;;;;;;5117810;28;20072;-28
2023/11/11 11:16:29;;;;;;;3.20;1.23;;;;;;;;;;5117585;28;20019;-28
2023/11/11 11:18:56;;;;;;;3.97;1.23;;;;;;;;;;5117564;28;20024;-28
2023/11/11 11:21:22;;;;;;;4.70;1.50;;;;;;;;;;5115978;28;20465;-28
2023/11/11 11:23:50;;;;;;;4.80;1.60;;;;;;;;;;5115457;28;20474;-28
2023/11/11 11:26:29;;;;;;;4.30;1.55;;;;;;;;;;5117527;28;20043;-28
2023/11/11 11:29:09;;;;;;;7.25;1.65;;;;;;;;;;5116989;28;20024;-28
2023/11/11 11:31:52;;;;;;;6.43;1.50;;;;;;;;;;5117571;28;20461;-28
2023/11/11 11:34:18;;;;;;;7.00;1.20;;;;;;;;;;5116966;28;20383;-29
2023/11/11 11:36:51;;;;;;;4.47;1.03;;;;;;;;;;5116910;28;20019;-28
2023/11/11 11:39:17;;;;;;;2.20;0.88;;;;;;;;;;5117070;28;20039;-28
2023/11/11 11:41:45;;;;;;;6.10;1.15;;;;;;;;;;5115822;28;20069;-28
2023/11/11 11:44:10;;;;;;;4.18;1.00;;;;;;;;;;5116495;28;20061;-28
2023/11/11 11:46:36;;;;;;;5.33;1.07;;;;;;;;;;5116654;28;20058;-28
2023/11/11 11:49:01;;;;;;;4.25;1.35;;;;;;;;;;5116367;28;20023;-28
2023/11/11 11:51:26;;;;;;;2.57;1.00;;;;;;;;;;5115004;28;20019;-27
2023/11/11 11:53:53;;;;;;;4.47;1.13;;;;;;;;;;5116359;28;20300;-27
2023/11/11 11:56:28;;;;;;;2.00;0.80;;;;;;;;;;5115505;28;20027;-27
2023/11/11 11:58:55;;;;;;;3.20;0.85;;;;;;;;;;5114629;28;20130;-27
2023/11/11 12:01:24;;;;;;;3.83;1.00;;;;;;;;;;5113745;28;20095;-27
2023/11/11 12:03:51;;;;;;;3.00;1.13;;;;;;;;;;5112492;28;20029;-27
2023/11/11 12:06:16;;;;;;;5.53;1.02;;;;;;;;;;5113124;28;20090;-28
2023/11/11 12:08:49;;;;;;;4.05;1.25;;;;;;;;;;5111628;28;20115;-27
2023/11/11 12:11:20;;;;;;;4.00;0.98;;;;;;;;;;5111899;28;20127;-27
2023/11/11 12:13:45;;;;;;;3.42;0.88;;;;;;;;;;5112567;28;20032;-27
2023/11/11 12:16:11;;;;;;;1.00;0.63;;;;;;;;;;5113456;28;20011;-28
2023/11/11 12:18:36;;;;;;;3.58;1.20;;;;;;;;;;5114172;28;20344;-27
2023/11/11 12:21:01;;;;;;;4.87;1.43;;;;;;;;;;5114269;28;20413;-27
2023/11/11 12:23:28;;;;;;;3.83;1.63;;;;;;;;;;5114524;28;20262;-27
2023/11/11 12:25:53;;;;;;;3.63;1.50;;;;;;;;;;5097679;28;20016;-28
2023/11/11 12:28:19;;;;;;;5.43;1.00;;;;;;;;;;5115873;28;20019;-27
2023/11/11 12:30:44;;;;;;;5.85;1.35;;;;;;;;;;5115834;28;20095;-27
2023/11/11 12:33:09;;;;;;;3.60;1.50;;;;;;;;;;5116380;28;20008;-28
2023/11/11 12:35:35;;;;;;;3.70;1.20;;;;;;;;;;5115762;28;20016;-27
2023/11/11 12:38:19;;;;;;;6.15;1.40;;;;;;;;;;5114674;28;20064;-27
2023/11/11 12:40:44;;;;;;;6.85;1.17;;;;;;;;;;5115639;28;20019;-27
2023/11/11 12:43:11;;;;;;;7.20;1.08;;;;;;;;;;5115664;28;20019;-27
2023/11/11 12:45:36;;;;;;;2.72;1.23;;;;;;;;;;5115956;28;20201;-27
2023/11/11 12:48:02;;;;;;;5.40;1.30;;;;;;;;;;5115544;28;20051;-27
2023/11/11 12:50:31;;;;;;;7.68;1.33;;;;;;;;;;5115384;28;20691;-27
2023/11/11 12:53:04;;;;;;;4.80;1.35;;;;;;;;;;5115404;28;20039;-27
2023/11/11 12:55:30;;;;;;;5.25;1.35;;;;;;;;;;5115985;28;20319;-27
2023/11/11 12:58:15;;;;;;;3.83;1.10;;;;;;;;;;5114126;28;20020;-27
2023/11/11 13:00:50;;;;;;;4.40;1.27;;;;;;;;;;5114395;28;20053;-27
2023/11/11 13:03:19;;;;;;;4.05;1.23;;;;;;;;;;5115078;28;20462;-27
2023/11/11 13:05:47;;;;;;;7.97;1.38;;;;;;;;;;5115090;28;20522;-27
2023/11/11 13:08:12;;;;;;;5.90;1.70;;;;;;;;;;5115185;28;20454;-27
2023/11/11 13:10:39;;;;;;;6.45;1.40;;;;;;;;;;5115047;28;20022;-28
2023/11/11 13:13:06;;;;;;;7.20;1.50;;;;;;;;;;5115086;28;20023;-27
2023/11/11 13:15:31;;;;;;;6.40;1.50;;;;;;;;;;5115217;28;20140;-31
2023/11/11 13:17:56;;;;;;;5.03;1.30;;;;;;;;;;5114888;28;20464;-29
2023/11/11 13:20:21;;;;;;;6.93;2.03;;;;;;;;;;5114792;28;20095;-26
2023/11/11 13:22:47;;;;;;;4.65;2.03;;;;;;;;;;5115081;28;20049;-26
2023/11/11 13:25:12;;;;;;;4.03;1.40;;;;;;;;;;5114962;28;20072;-26
2023/11/11 13:27:37;;;;;;;4.93;1.70;;;;;;;;;;5114770;28;20023;-26
2023/11/11 13:30:03;;;;;;;9.83;1.60;;;;;;;;;;5115235;28;20008;-26
2023/11/11 13:32:28;;;;;;;4.43;1.45;;;;;;;;;;5114643;28;20061;-26
2023/11/11 13:34:56;;;;;;;5.80;1.30;;;;;;;;;;5115147;28;20020;-26
2023/11/11 13:37:21;;;;;;;4.60;1.52;;;;;;;;;;5114461;28;20031;-26
2023/11/11 13:39:51;;;;;;;6.88;1.52;;;;;;;;;;5114723;28;20084;-27
2023/11/11 13:42:19;;;;;;;6.43;1.67;;;;;;;;;;5114774;28;20023;-27
2023/11/11 13:44:44;;;;;;;5.97;1.20;;;;;;;;;;5114508;28;20386;-27
2023/11/11 13:47:09;;;;;;;4.13;1.10;;;;;;;;;;5114447;28;20015;-27
2023/11/11 13:49:34;;;;;;;6.93;1.37;;;;;;;;;;5114805;28;20241;-27
2023/11/11 13:51:59;;;;;;;5.97;1.50;;;;;;;;;;5114075;28;20281;-27
2023/11/11 13:54:26;;;;;;;5.57;1.38;;;;;;;;;;5114416;28;20271;-27
2023/11/11 13:56:51;;;;;;;3.53;1.40;;;;;;;;;;5114187;28;20035;-27
2023/11/11 13:59:16;;;;;;;2.93;1.13;;;;;;;;;;5114492;28;20023;-27
2023/11/11 14:01:42;;;;;;;2.60;1.30;;;;;;;;;;5114159;28;20611;-27
2023/11/11 14:04:08;;;;;;;6.90;1.42;;;;;;;;;;5113934;28;20288;-27
2023/11/11 14:06:34;;;;;;;3.33;1.13;;;;;;;;;;5114566;28;20016;-27
2023/11/11 14:08:59;;;;;;;3.20;1.20;;;;;;;;;;5114233;28;20019;-27
2023/11/11 14:11:26;;;;;;;3.83;1.30;;;;;;;;;;5113337;28;20028;-27
2023/11/11 14:13:52;;;;;;;3.42;1.30;;;;;;;;;;5113926;28;20019;-27
2023/11/11 14:16:21;;;;;;;5.65;1.23;;;;;;;;;;5114211;28;20027;-27
2023/11/11 14:18:46;;;;;;;5.22;1.58;;;;;;;;;;5113795;28;20102;-27
2023/11/11 14:21:15;;;;;;;3.17;1.20;;;;;;;;;;5114484;28;20053;-26
2023/11/11 14:23:41;;;;;;;3.33;1.30;;;;;;;;;;5114092;28;20619;-27
2023/11/11 14:26:07;;;;;;;6.57;1.43;;;;;;;;;;5113762;28;20015;-27
2023/11/11 14:28:32;;;;;;;5.53;1.38;;;;;;;;;;5114126;28;20250;-27
2023/11/11 14:30:57;;;;;;;6.72;1.80;;;;;;;;;;5114089;28;20029;-27
2023/11/11 14:33:23;;;;;;;4.78;1.70;;;;;;;;;;5113739;28;20027;-27
2023/11/11 14:35:48;;;;;;;2.75;1.15;;;;;;;;;;5114011;28;20073;-27
2023/11/11 14:38:14;;;;;;;6.22;1.77;;;;;;;;;;5113535;28;20047;-27